Time;durP1;ratioP1;P1;durP2;ratioP2;P2;SDS_P1;SDS_P2;PMS_P1;PMS_P2;Temp;Humidity;BMP_temperature;BMP_pressure;BME280_temperature;BME280_humidity;BME280_pressure;Samples;Min_cycle;Max_cycle;Signal;HPM_P1;HPM_P2
2022/08/05 00:01:00;;;;;;;9.15;4.20;;;;;;;;;;5038030;28;20025;-74
2022/08/05 00:03:25;;;;;;;7.20;3.58;;;;;;;;;;5026752;28;20133;-76
2022/08/05 00:05:50;;;;;;;7.78;4.80;;;;;;;;;;5028781;28;20041;-74
2022/08/05 00:08:16;;;;;;;8.43;3.97;;;;;;;;;;5030834;28;20050;-77
2022/08/05 00:10:41;;;;;;;8.75;4.10;;;;;;;;;;5029815;28;20030;-77
2022/08/05 00:13:06;;;;;;;9.85;4.30;;;;;;;;;;5046544;28;20024;-77
2022/08/05 00:15:34;;;;;;;10.13;4.90;;;;;;;;;;5031553;28;20037;-77
2022/08/05 00:18:00;;;;;;;9.52;4.18;;;;;;;;;;5041347;28;20302;-74
2022/08/05 00:20:25;;;;;;;7.40;4.57;;;;;;;;;;5034611;28;20064;-74
2022/08/05 00:22:50;;;;;;;6.27;4.23;;;;;;;;;;5034558;28;20615;-77
2022/08/05 00:25:15;;;;;;;7.18;4.18;;;;;;;;;;5034850;28;20281;-77
2022/08/05 00:27:40;;;;;;;5.57;4.10;;;;;;;;;;5034555;28;20108;-75
2022/08/05 00:30:06;;;;;;;8.70;4.57;;;;;;;;;;5035261;28;20329;-74
2022/08/05 00:32:31;;;;;;;9.15;5.28;;;;;;;;;;5034652;28;20068;-77
2022/08/05 00:34:56;;;;;;;9.20;4.03;;;;;;;;;;5050732;28;20096;-78
2022/08/05 00:37:22;;;;;;;8.50;3.90;;;;;;;;;;5049798;28;20282;-75
2022/08/05 00:39:47;;;;;;;11.63;4.15;;;;;;;;;;5034883;28;20312;-76
2022/08/05 00:42:15;;;;;;;11.25;4.65;;;;;;;;;;5032581;28;20052;-77
2022/08/05 00:44:40;;;;;;;12.02;4.03;;;;;;;;;;5033760;28;20034;-77
2022/08/05 00:47:05;;;;;;;11.23;5.93;;;;;;;;;;5034727;28;20022;-74
2022/08/05 00:49:31;;;;;;;7.90;4.82;;;;;;;;;;5034352;28;20417;-74
2022/08/05 00:51:56;;;;;;;6.63;4.53;;;;;;;;;;5033927;28;20112;-77
2022/08/05 00:54:21;;;;;;;7.93;4.05;;;;;;;;;;5034254;28;20021;-78
2022/08/05 00:56:46;;;;;;;6.80;3.88;;;;;;;;;;5052305;28;20128;-77
2022/08/05 00:59:11;;;;;;;7.17;3.67;;;;;;;;;;5033618;28;20053;-77
2022/08/05 01:01:38;;;;;;;7.97;3.80;;;;;;;;;;5031871;28;20278;-77
2022/08/05 01:04:03;;;;;;;7.88;4.47;;;;;;;;;;5033695;28;20091;-75
2022/08/05 01:06:29;;;;;;;7.88;3.60;;;;;;;;;;5034016;28;20056;-75
2022/08/05 01:08:54;;;;;;;8.60;4.28;;;;;;;;;;5031943;28;20040;-74
2022/08/05 01:11:26;;;;;;;9.82;3.80;;;;;;;;;;5033854;28;20030;-77
2022/08/05 01:14:03;;;;;;;11.60;4.57;;;;;;;;;;5045708;28;20113;-78
2022/08/05 01:16:28;;;;;;;8.18;3.90;;;;;;;;;;5024103;28;20036;-75
2022/08/05 01:18:56;;;;;;;5.80;3.95;;;;;;;;;;5047963;28;20026;-77
2022/08/05 01:21:34;;;;;;;8.85;4.72;;;;;;;;;;5033305;28;20034;-75
2022/08/05 01:24:12;;;;;;;9.70;3.72;;;;;;;;;;5048824;28;20009;-76
2022/08/05 01:26:54;;;;;;;5.97;4.47;;;;;;;;;;5032889;28;20048;-74
2022/08/05 01:29:28;;;;;;;10.85;3.55;;;;;;;;;;5046998;28;20033;-74
2022/08/05 01:31:55;;;;;;;11.93;4.03;;;;;;;;;;5032979;28;20088;-75
2022/08/05 01:34:31;;;;;;;4.85;3.13;;;;;;;;;;5033207;28;20040;-76
2022/08/05 01:37:06;;;;;;;11.07;3.53;;;;;;;;;;5032806;28;20033;-74
2022/08/05 01:39:32;;;;;;;13.23;4.57;;;;;;;;;;5032943;28;20469;-77
2022/08/05 01:41:58;;;;;;;7.95;3.88;;;;;;;;;;5031990;28;20416;-77
2022/08/05 01:44:24;;;;;;;6.82;3.55;;;;;;;;;;5046209;28;20025;-76
2022/08/05 01:46:51;;;;;;;7.30;3.28;;;;;;;;;;5031057;28;20409;-74
2022/08/05 01:49:19;;;;;;;6.90;3.28;;;;;;;;;;5032834;28;20057;-77
2022/08/05 01:51:44;;;;;;;10.00;3.83;;;;;;;;;;5032260;28;20075;-75
2022/08/05 01:54:11;;;;;;;7.93;3.97;;;;;;;;;;5048501;28;20472;-77
2022/08/05 01:56:38;;;;;;;8.77;3.22;;;;;;;;;;5037327;28;20048;-77
2022/08/05 01:59:06;;;;;;;5.18;2.83;;;;;;;;;;5033074;28;20068;-78
2022/08/05 02:01:32;;;;;;;7.88;4.00;;;;;;;;;;5032457;28;20091;-78
2022/08/05 02:03:59;;;;;;;4.57;2.83;;;;;;;;;;5032863;28;20052;-78
2022/08/05 02:06:24;;;;;;;5.32;4.00;;;;;;;;;;5033401;28;20033;-74
2022/08/05 02:08:49;;;;;;;7.57;4.82;;;;;;;;;;5033236;28;20017;-75
2022/08/05 02:11:16;;;;;;;8.50;3.47;;;;;;;;;;5033420;28;20171;-74
2022/08/05 02:13:55;;;;;;;8.77;3.60;;;;;;;;;;5040734;28;20025;-74
2022/08/05 02:16:50;;;;;;;15.35;4.55;;;;;;;;;;5049296;28;20025;-74
2022/08/05 02:19:24;;;;;;;8.18;3.38;;;;;;;;;;5024541;28;20037;-75
2022/08/05 02:22:02;;;;;;;6.70;3.13;;;;;;;;;;5048540;28;20025;-75
2022/08/05 02:24:32;;;;;;;9.93;3.33;;;;;;;;;;5032927;28;20049;-75
2022/08/05 02:27:00;;;;;;;8.60;3.13;;;;;;;;;;5043847;28;20033;-77
2022/08/05 02:29:27;;;;;;;7.10;3.60;;;;;;;;;;5029647;28;20485;-74
2022/08/05 02:31:56;;;;;;;5.20;3.05;;;;;;;;;;5032745;28;20037;-74
2022/08/05 02:34:21;;;;;;;6.78;3.10;;;;;;;;;;5030781;28;20033;-77
2022/08/05 02:36:51;;;;;;;7.00;3.55;;;;;;;;;;5033370;28;20179;-73
2022/08/05 02:39:18;;;;;;;6.45;3.50;;;;;;;;;;5047191;28;20025;-76
2022/08/05 02:41:44;;;;;;;5.97;3.38;;;;;;;;;;5031627;28;20025;-75
2022/08/05 02:44:10;;;;;;;7.70;3.13;;;;;;;;;;5047216;28;20033;-78
2022/08/05 02:46:37;;;;;;;8.30;5.07;;;;;;;;;;5032736;28;20495;-77
2022/08/05 02:49:04;;;;;;;6.18;3.20;;;;;;;;;;5032483;28;20026;-75
2022/08/05 02:51:30;;;;;;;10.52;4.20;;;;;;;;;;5032573;28;20023;-76
2022/08/05 02:53:56;;;;;;;11.13;5.00;;;;;;;;;;5030222;28;20025;-75
2022/08/05 02:56:21;;;;;;;6.55;3.72;;;;;;;;;;5049141;28;20083;-78
2022/08/05 02:58:48;;;;;;;6.65;4.10;;;;;;;;;;5049791;28;20474;-77
2022/08/05 03:01:16;;;;;;;9.77;3.75;;;;;;;;;;5032196;28;20033;-75
2022/08/05 03:03:41;;;;;;;5.85;3.42;;;;;;;;;;5030679;28;21808;-77
2022/08/05 03:06:09;;;;;;;6.35;4.05;;;;;;;;;;5032617;28;20032;-77
2022/08/05 03:08:35;;;;;;;6.60;3.10;;;;;;;;;;5047302;28;20064;-75
2022/08/05 03:11:00;;;;;;;8.38;3.63;;;;;;;;;;5032875;28;20433;-78
2022/08/05 03:13:25;;;;;;;8.45;4.57;;;;;;;;;;5039610;28;20033;-77
2022/08/05 03:15:50;;;;;;;6.33;3.33;;;;;;;;;;5052756;28;20068;-76
2022/08/05 03:18:15;;;;;;;4.60;3.28;;;;;;;;;;5032871;28;20266;-78
2022/08/05 03:20:41;;;;;;;5.17;3.60;;;;;;;;;;5029355;28;20401;-78
2022/08/05 03:23:07;;;;;;;8.57;4.15;;;;;;;;;;5011585;28;20298;-78
2022/08/05 03:25:34;;;;;;;9.10;3.80;;;;;;;;;;5011793;28;20493;-75
2022/08/05 03:27:59;;;;;;;7.78;3.85;;;;;;;;;;5020291;28;20079;-75
2022/08/05 03:30:25;;;;;;;7.13;3.38;;;;;;;;;;5032872;28;20083;-79
2022/08/05 03:32:51;;;;;;;7.07;3.65;;;;;;;;;;5047011;28;20029;-79
2022/08/05 03:35:16;;;;;;;9.68;4.40;;;;;;;;;;5031948;28;20102;-75
2022/08/05 03:37:42;;;;;;;6.90;3.78;;;;;;;;;;5047292;28;20124;-77
2022/08/05 03:40:08;;;;;;;8.38;3.78;;;;;;;;;;5032265;28;20373;-74
2022/08/05 03:42:34;;;;;;;10.45;4.50;;;;;;;;;;5029883;28;20036;-77
2022/08/05 03:44:59;;;;;;;5.10;4.10;;;;;;;;;;5031589;28;20033;-78
2022/08/05 03:47:24;;;;;;;6.20;3.95;;;;;;;;;;5031200;28;20026;-77
2022/08/05 03:49:50;;;;;;;7.28;4.22;;;;;;;;;;5032514;28;20095;-77
2022/08/05 03:52:21;;;;;;;5.68;3.88;;;;;;;;;;5035450;28;20029;-77
2022/08/05 03:54:57;;;;;;;5.97;4.18;;;;;;;;;;5039360;28;20025;-74
2022/08/05 03:57:25;;;;;;;8.98;4.35;;;;;;;;;;5038206;28;20025;-75
2022/08/05 03:59:54;;;;;;;6.70;3.70;;;;;;;;;;5035333;28;20032;-78
2022/08/05 04:02:21;;;;;;;6.88;3.75;;;;;;;;;;5035143;28;20041;-78
2022/08/05 04:04:47;;;;;;;7.05;4.18;;;;;;;;;;5035677;28;20045;-78
2022/08/05 04:07:12;;;;;;;16.48;5.88;;;;;;;;;;5034391;28;20108;-76
2022/08/05 04:09:38;;;;;;;6.45;3.80;;;;;;;;;;5035267;28;20037;-78
2022/08/05 04:12:03;;;;;;;8.10;4.63;;;;;;;;;;5051553;28;20017;-78
2022/08/05 04:14:29;;;;;;;10.63;3.80;;;;;;;;;;5034222;28;20087;-76
2022/08/05 04:16:55;;;;;;;7.95;2.80;;;;;;;;;;5035589;28;20032;-76
2022/08/05 04:19:20;;;;;;;7.72;3.67;;;;;;;;;;5035392;28;20037;-76
2022/08/05 04:21:45;;;;;;;8.75;3.70;;;;;;;;;;5050016;28;20024;-74
2022/08/05 04:24:10;;;;;;;7.97;3.30;;;;;;;;;;5035605;28;20394;-75
2022/08/05 04:26:36;;;;;;;5.63;3.50;;;;;;;;;;5032961;28;20370;-77
2022/08/05 04:29:01;;;;;;;13.25;4.30;;;;;;;;;;5034623;28;20018;-74
2022/08/05 04:31:26;;;;;;;6.65;3.58;;;;;;;;;;5035061;28;20037;-77
2022/08/05 04:33:52;;;;;;;6.95;4.20;;;;;;;;;;5033954;28;20503;-77
2022/08/05 04:36:17;;;;;;;3.63;3.27;;;;;;;;;;5034733;28;20132;-77
2022/08/05 04:38:42;;;;;;;7.68;4.05;;;;;;;;;;5034807;28;20266;-79
2022/08/05 04:41:08;;;;;;;7.53;4.18;;;;;;;;;;5034833;28;20029;-77
2022/08/05 04:43:33;;;;;;;4.27;3.13;;;;;;;;;;5034058;28;20436;-73
2022/08/05 04:45:58;;;;;;;7.47;3.40;;;;;;;;;;5034935;28;20262;-77
2022/08/05 04:48:24;;;;;;;6.88;3.08;;;;;;;;;;5032908;28;20033;-78
2022/08/05 04:50:52;;;;;;;5.70;2.95;;;;;;;;;;5033925;28;20033;-74
2022/08/05 04:53:17;;;;;;;6.18;3.28;;;;;;;;;;5034532;28;20479;-74
2022/08/05 04:55:45;;;;;;;8.07;3.95;;;;;;;;;;5046072;28;20079;-76
2022/08/05 04:58:12;;;;;;;5.38;3.63;;;;;;;;;;5037407;28;20069;-77
2022/08/05 05:00:37;;;;;;;8.73;3.63;;;;;;;;;;5032591;28;20048;-77
2022/08/05 05:03:03;;;;;;;4.70;2.88;;;;;;;;;;5020577;28;20033;-74
2022/08/05 05:05:29;;;;;;;6.78;3.70;;;;;;;;;;5049396;28;20071;-77
2022/08/05 05:08:04;;;;;;;5.75;3.25;;;;;;;;;;5034176;28;20540;-79
2022/08/05 05:10:31;;;;;;;6.70;3.70;;;;;;;;;;5033808;28;20493;-74
2022/08/05 05:12:56;;;;;;;7.93;4.47;;;;;;;;;;5034285;28;20025;-75
2022/08/05 05:15:21;;;;;;;10.70;4.50;;;;;;;;;;5049895;28;20021;-77
2022/08/05 05:17:47;;;;;;;4.88;3.92;;;;;;;;;;5050550;28;20037;-75
2022/08/05 05:20:12;;;;;;;8.25;4.97;;;;;;;;;;5041903;28;20021;-77
2022/08/05 05:22:38;;;;;;;9.10;4.53;;;;;;;;;;5033856;28;20381;-77
2022/08/05 05:25:03;;;;;;;5.97;4.40;;;;;;;;;;5032523;28;20021;-74
2022/08/05 05:27:30;;;;;;;8.25;3.50;;;;;;;;;;5033762;28;20033;-77
2022/08/05 05:29:55;;;;;;;9.50;4.47;;;;;;;;;;5034053;28;20021;-75
2022/08/05 05:32:20;;;;;;;10.43;5.37;;;;;;;;;;5030907;28;20044;-77
2022/08/05 05:34:45;;;;;;;8.05;4.90;;;;;;;;;;5049210;28;20301;-76
2022/08/05 05:37:13;;;;;;;5.47;3.80;;;;;;;;;;5033604;28;20038;-78
2022/08/05 05:39:39;;;;;;;5.93;4.47;;;;;;;;;;5033725;28;20064;-78
2022/08/05 05:42:04;;;;;;;6.50;4.28;;;;;;;;;;5033205;28;20061;-77
2022/08/05 05:44:30;;;;;;;7.07;4.30;;;;;;;;;;5031519;28;20028;-75
2022/08/05 05:46:55;;;;;;;6.85;4.35;;;;;;;;;;5033372;28;20450;-75
2022/08/05 05:49:20;;;;;;;8.63;4.20;;;;;;;;;;5033726;28;20040;-75
2022/08/05 05:51:45;;;;;;;5.07;3.83;;;;;;;;;;5028526;28;20081;-77
2022/08/05 05:54:11;;;;;;;4.75;3.55;;;;;;;;;;5033916;28;20258;-75
2022/08/05 05:56:36;;;;;;;5.22;3.47;;;;;;;;;;5041005;28;20070;-75
2022/08/05 05:59:02;;;;;;;8.27;4.32;;;;;;;;;;5034068;28;20033;-77
2022/08/05 06:01:30;;;;;;;4.07;3.50;;;;;;;;;;5033703;28;20029;-75
2022/08/05 06:03:56;;;;;;;8.10;4.93;;;;;;;;;;5033365;28;20049;-77
2022/08/05 06:06:21;;;;;;;6.43;4.22;;;;;;;;;;5033295;28;20041;-74
2022/08/05 06:08:46;;;;;;;6.57;4.53;;;;;;;;;;5034570;28;20026;-77
2022/08/05 06:11:11;;;;;;;6.10;4.50;;;;;;;;;;5050199;28;20029;-77
2022/08/05 06:13:37;;;;;;;10.27;7.45;;;;;;;;;;5031810;28;20631;-77
2022/08/05 06:16:02;;;;;;;10.00;6.53;;;;;;;;;;5048493;28;20108;-75
2022/08/05 06:18:27;;;;;;;12.95;6.57;;;;;;;;;;5031019;28;20021;-76
2022/08/05 06:20:52;;;;;;;12.50;7.80;;;;;;;;;;5048046;28;20511;-76
2022/08/05 06:23:18;;;;;;;9.20;6.28;;;;;;;;;;5032243;28;20112;-74
2022/08/05 06:25:43;;;;;;;9.13;4.70;;;;;;;;;;5032108;28;20032;-79
2022/08/05 06:28:08;;;;;;;5.90;5.05;;;;;;;;;;5032540;28;20457;-76
2022/08/05 06:30:33;;;;;;;9.27;4.43;;;;;;;;;;5034006;28;20068;-76
2022/08/05 06:32:59;;;;;;;5.15;3.00;;;;;;;;;;5032469;28;20286;-79
2022/08/05 06:35:24;;;;;;;6.27;3.33;;;;;;;;;;5031692;28;20052;-81
2022/08/05 06:37:49;;;;;;;5.38;3.47;;;;;;;;;;5032094;28;20316;-79
2022/08/05 06:40:14;;;;;;;11.37;3.40;;;;;;;;;;5033811;28;20017;-79
2022/08/05 06:42:40;;;;;;;6.68;4.35;;;;;;;;;;5031051;28;20739;-78
2022/08/05 06:45:05;;;;;;;7.28;3.42;;;;;;;;;;5032741;28;20037;-75
2022/08/05 06:47:30;;;;;;;8.85;3.00;;;;;;;;;;5032713;28;20061;-75
2022/08/05 06:49:56;;;;;;;3.85;2.63;;;;;;;;;;5033015;28;20436;-78
2022/08/05 06:52:22;;;;;;;2.50;2.30;;;;;;;;;;5032701;28;20079;-75
2022/08/05 06:54:47;;;;;;;5.60;3.10;;;;;;;;;;5048590;28;20025;-78
2022/08/05 06:57:13;;;;;;;6.25;2.60;;;;;;;;;;5048214;28;20492;-77
2022/08/05 06:59:39;;;;;;;5.57;2.50;;;;;;;;;;5033454;28;20029;-78
2022/08/05 07:02:08;;;;;;;2.83;2.45;;;;;;;;;;5048171;28;20111;-77
2022/08/05 07:04:33;;;;;;;4.57;2.58;;;;;;;;;;5031783;28;20115;-75
2022/08/05 07:06:58;;;;;;;6.40;2.85;;;;;;;;;;5032306;28;20056;-77
2022/08/05 07:09:23;;;;;;;3.38;2.42;;;;;;;;;;5032706;28;20030;-74
2022/08/05 07:11:49;;;;;;;5.35;2.42;;;;;;;;;;5047362;28;20026;-77
2022/08/05 07:17:01;;;;;;;5.38;2.47;;;;;;;;;;5017245;28;20040;-78
2022/08/05 07:19:27;;;;;;;2.90;1.90;;;;;;;;;;5032800;28;20381;-78
2022/08/05 07:21:53;;;;;;;4.82;2.53;;;;;;;;;;5032970;28;20052;-78
2022/08/05 07:24:18;;;;;;;3.00;2.13;;;;;;;;;;5032412;28;20064;-76
2022/08/05 07:26:44;;;;;;;3.08;1.75;;;;;;;;;;5047583;28;20041;-75
2022/08/05 07:29:13;;;;;;;2.72;1.90;;;;;;;;;;5031258;28;20470;-75
2022/08/05 07:31:38;;;;;;;4.05;2.15;;;;;;;;;;5047922;28;20500;-78
2022/08/05 07:34:03;;;;;;;6.38;2.03;;;;;;;;;;5033120;28;20021;-78
2022/08/05 07:36:29;;;;;;;2.40;2.05;;;;;;;;;;5032484;28;20017;-75
2022/08/05 07:38:54;;;;;;;3.58;2.47;;;;;;;;;;5047401;28;20029;-78
2022/08/05 07:41:21;;;;;;;2.80;2.00;;;;;;;;;;5047920;28;20030;-75
2022/08/05 07:43:49;;;;;;;8.13;2.38;;;;;;;;;;5031769;28;20018;-75
2022/08/05 07:46:15;;;;;;;1.95;1.77;;;;;;;;;;5033254;28;20034;-78
2022/08/05 07:48:40;;;;;;;3.05;2.40;;;;;;;;;;5030186;28;20432;-75
2022/08/05 07:51:05;;;;;;;4.03;2.20;;;;;;;;;;5032820;28;20029;-75
2022/08/05 07:53:31;;;;;;;3.40;2.45;;;;;;;;;;5047824;28;20026;-76
2022/08/05 07:55:56;;;;;;;2.72;1.65;;;;;;;;;;5039583;28;20111;-78
2022/08/05 07:58:21;;;;;;;2.85;2.00;;;;;;;;;;5047935;28;20087;-75
2022/08/05 08:00:47;;;;;;;6.18;2.53;;;;;;;;;;5030464;28;20026;-78
2022/08/05 08:03:15;;;;;;;2.63;1.95;;;;;;;;;;5047431;28;20033;-76
2022/08/05 08:05:49;;;;;;;5.75;2.53;;;;;;;;;;5030845;28;20059;-78
2022/08/05 08:08:15;;;;;;;4.47;2.08;;;;;;;;;;5037709;28;20029;-75
2022/08/05 08:10:42;;;;;;;4.05;1.77;;;;;;;;;;5035737;28;20044;-78
2022/08/05 08:13:08;;;;;;;2.10;1.75;;;;;;;;;;5032371;28;20037;-74
2022/08/05 08:15:33;;;;;;;5.40;2.45;;;;;;;;;;5048401;28;20363;-76
2022/08/05 08:17:58;;;;;;;2.90;2.10;;;;;;;;;;5047365;28;20017;-77
2022/08/05 08:20:24;;;;;;;4.43;2.77;;;;;;;;;;5047512;28;20034;-78
2022/08/05 08:22:53;;;;;;;4.80;2.05;;;;;;;;;;5047313;28;20275;-76
2022/08/05 08:25:18;;;;;;;3.30;2.05;;;;;;;;;;5038200;28;20085;-76
2022/08/05 08:27:44;;;;;;;2.92;1.60;;;;;;;;;;5030938;28;20495;-77
2022/08/05 08:30:10;;;;;;;4.15;1.95;;;;;;;;;;5047769;28;20033;-74
2022/08/05 08:32:35;;;;;;;4.88;1.70;;;;;;;;;;5031656;28;20026;-77
2022/08/05 08:35:00;;;;;;;3.45;2.25;;;;;;;;;;5043539;28;20022;-75
2022/08/05 08:37:26;;;;;;;5.30;2.35;;;;;;;;;;5013174;28;20054;-77
2022/08/05 08:39:51;;;;;;;6.18;2.03;;;;;;;;;;5016338;28;20022;-76
2022/08/05 08:42:17;;;;;;;4.70;1.90;;;;;;;;;;5033565;28;20087;-76
2022/08/05 08:44:43;;;;;;;2.97;1.85;;;;;;;;;;5034989;28;20258;-77
2022/08/05 08:47:08;;;;;;;5.22;1.95;;;;;;;;;;5034288;28;20021;-77
2022/08/05 08:49:34;;;;;;;4.22;1.98;;;;;;;;;;5035007;28;20079;-78
2022/08/05 08:52:07;;;;;;;4.47;2.05;;;;;;;;;;5035155;28;20390;-75
2022/08/05 08:54:34;;;;;;;3.13;1.65;;;;;;;;;;5035318;28;20094;-76
2022/08/05 08:56:59;;;;;;;3.97;1.25;;;;;;;;;;5038964;28;20090;-77
2022/08/05 08:59:24;;;;;;;2.78;1.30;;;;;;;;;;5035536;28;20476;-79
2022/08/05 09:01:50;;;;;;;2.00;1.33;;;;;;;;;;5035655;28;20070;-78
2022/08/05 09:04:16;;;;;;;3.28;1.20;;;;;;;;;;5031949;28;20060;-77
2022/08/05 09:06:41;;;;;;;3.50;1.45;;;;;;;;;;5050873;28;20045;-78
2022/08/05 09:09:06;;;;;;;2.10;1.50;;;;;;;;;;5035186;28;20556;-75
2022/08/05 09:11:32;;;;;;;1.83;1.55;;;;;;;;;;5050757;28;20275;-75
2022/08/05 09:13:59;;;;;;;4.70;1.17;;;;;;;;;;5034818;28;20022;-75
2022/08/05 09:16:27;;;;;;;4.68;1.40;;;;;;;;;;5021832;28;20033;-77
2022/08/05 09:18:53;;;;;;;1.30;1.17;;;;;;;;;;5031985;28;20076;-75
2022/08/05 09:21:18;;;;;;;4.95;1.60;;;;;;;;;;5046080;28;20033;-74
2022/08/05 09:23:44;;;;;;;3.10;1.00;;;;;;;;;;5030208;28;20030;-74
2022/08/05 09:26:10;;;;;;;2.60;1.15;;;;;;;;;;5020672;28;20396;-75
2022/08/05 09:28:37;;;;;;;2.55;1.10;;;;;;;;;;5033692;28;20470;-75
2022/08/05 09:31:07;;;;;;;3.30;1.10;;;;;;;;;;5034394;28;20502;-77
2022/08/05 09:33:45;;;;;;;1.70;0.93;;;;;;;;;;5034516;28;20026;-78
2022/08/05 09:36:10;;;;;;;1.85;0.95;;;;;;;;;;5034703;28;20057;-77
2022/08/05 09:38:35;;;;;;;2.35;1.00;;;;;;;;;;5050296;28;20061;-75
2022/08/05 09:41:02;;;;;;;2.55;1.15;;;;;;;;;;5049229;28;20060;-77
2022/08/05 09:43:31;;;;;;;3.53;1.02;;;;;;;;;;5033405;28;20033;-76
2022/08/05 09:45:57;;;;;;;3.50;1.10;;;;;;;;;;5034759;28;20037;-74
2022/08/05 09:48:27;;;;;;;3.60;1.02;;;;;;;;;;5033550;28;20033;-77
2022/08/05 09:50:54;;;;;;;2.72;1.27;;;;;;;;;;5032920;28;20079;-78
2022/08/05 09:53:19;;;;;;;2.35;1.23;;;;;;;;;;5034074;28;20022;-75
2022/08/05 09:55:45;;;;;;;1.90;1.00;;;;;;;;;;5046392;28;20020;-75
2022/08/05 09:58:14;;;;;;;2.00;1.50;;;;;;;;;;5045042;28;20028;-79
2022/08/05 10:00:50;;;;;;;6.22;1.20;;;;;;;;;;5034368;28;20021;-78
2022/08/05 10:03:15;;;;;;;2.42;1.00;;;;;;;;;;5049194;28;20444;-78
2022/08/05 10:05:41;;;;;;;4.93;1.20;;;;;;;;;;5032623;28;20030;-78
2022/08/05 10:08:06;;;;;;;4.15;1.10;;;;;;;;;;5041331;28;20029;-78
2022/08/05 10:10:44;;;;;;;4.95;1.00;;;;;;;;;;5033060;28;20029;-78
2022/08/05 10:13:10;;;;;;;1.52;1.02;;;;;;;;;;5033703;28;20021;-78
2022/08/05 10:15:37;;;;;;;2.38;0.80;;;;;;;;;;5033632;28;20033;-77
2022/08/05 10:18:07;;;;;;;2.63;0.90;;;;;;;;;;5031676;28;20108;-78
2022/08/05 10:21:05;;;;;;;3.83;0.80;;;;;;;;;;5049120;28;20398;-78
2022/08/05 10:23:35;;;;;;;5.38;1.13;;;;;;;;;;5026676;28;20067;-78
2022/08/05 10:26:02;;;;;;;1.20;0.70;;;;;;;;;;5029277;28;20456;-78
2022/08/05 10:28:29;;;;;;;0.93;0.70;;;;;;;;;;5016510;28;20459;-79
2022/08/05 10:30:54;;;;;;;1.90;0.60;;;;;;;;;;5014354;28;20025;-75
2022/08/05 10:33:22;;;;;;;2.97;0.70;;;;;;;;;;5029366;28;20109;-76
2022/08/05 10:35:50;;;;;;;2.60;0.88;;;;;;;;;;5025372;28;20018;-75
2022/08/05 10:38:20;;;;;;;3.30;0.80;;;;;;;;;;5049119;28;20408;-75
2022/08/05 10:40:48;;;;;;;3.72;0.65;;;;;;;;;;5033658;28;20037;-76
2022/08/05 10:43:22;;;;;;;1.50;0.65;;;;;;;;;;5032533;28;20079;-78
2022/08/05 10:45:57;;;;;;;1.05;0.80;;;;;;;;;;5032672;28;20516;-78
2022/08/05 10:48:30;;;;;;;2.70;0.63;;;;;;;;;;5036884;28;20032;-78
2022/08/05 10:51:16;;;;;;;1.98;0.70;;;;;;;;;;5031141;28;20486;-75
2022/08/05 10:53:50;;;;;;;1.50;0.70;;;;;;;;;;5031423;28;20079;-75
2022/08/05 10:56:16;;;;;;;2.05;0.90;;;;;;;;;;5051763;28;20033;-75
2022/08/05 10:58:48;;;;;;;1.88;0.68;;;;;;;;;;5032165;28;20033;-77
2022/08/05 11:01:13;;;;;;;2.65;0.80;;;;;;;;;;5031408;28;20026;-77
2022/08/05 11:03:57;;;;;;;1.63;1.52;;;;;;;;;;5047746;28;20106;-78
2022/08/05 11:06:23;;;;;;;3.33;0.93;;;;;;;;;;5021327;28;20041;-75
2022/08/05 11:09:06;;;;;;;4.45;1.48;;;;;;;;;;5032969;28;20541;-75
2022/08/05 11:11:35;;;;;;;1.17;0.70;;;;;;;;;;5032441;28;20036;-78
2022/08/05 11:14:01;;;;;;;0.88;0.70;;;;;;;;;;5031573;28;20056;-78
2022/08/05 11:16:26;;;;;;;2.67;0.80;;;;;;;;;;5031258;28;20025;-77
2022/08/05 11:19:10;;;;;;;3.17;1.83;;;;;;;;;;5032207;28;20082;-76
2022/08/05 11:21:37;;;;;;;1.02;0.80;;;;;;;;;;5033067;28;20477;-78
2022/08/05 11:24:07;;;;;;;2.35;1.40;;;;;;;;;;5032445;28;20021;-78
2022/08/05 11:26:33;;;;;;;2.13;0.82;;;;;;;;;;5048214;28;20382;-78
2022/08/05 11:28:59;;;;;;;1.90;0.80;;;;;;;;;;5032538;28;20384;-76
2022/08/05 11:31:32;;;;;;;0.68;0.68;;;;;;;;;;5030908;28;20032;-74
2022/08/05 11:33:57;;;;;;;;;;;;;;;;;;5047624;28;20036;-77
2022/08/05 11:36:39;;;;;;;1.47;0.70;;;;;;;;;;5030154;28;19913;-74
2022/08/05 11:39:04;;;;;;;1.15;0.50;;;;;;;;;;5032935;28;20270;-75
2022/08/05 11:41:30;;;;;;;0.73;0.50;;;;;;;;;;5032055;28;20040;-77
2022/08/05 11:44:00;;;;;;;2.75;0.88;;;;;;;;;;5031057;28;20555;-75
2022/08/05 11:46:27;;;;;;;2.00;0.60;;;;;;;;;;5032621;28;20029;-74
2022/08/05 11:48:53;;;;;;;1.02;0.65;;;;;;;;;;5033613;28;20087;-74
2022/08/05 11:51:21;;;;;;;1.95;0.75;;;;;;;;;;5031361;28;20571;-78
2022/08/05 11:53:47;;;;;;;2.78;0.70;;;;;;;;;;5032079;28;20025;-76
2022/08/05 11:56:12;;;;;;;1.13;0.55;;;;;;;;;;5047919;28;20029;-74
2022/08/05 11:58:39;;;;;;;3.45;1.98;;;;;;;;;;5032937;28;20049;-77
2022/08/05 12:01:09;;;;;;;3.65;1.02;;;;;;;;;;5047522;28;20028;-78
2022/08/05 12:03:41;;;;;;;1.90;0.70;;;;;;;;;;5031537;28;20061;-78
2022/08/05 12:06:07;;;;;;;1.65;0.70;;;;;;;;;;5030910;28;20029;-76
2022/08/05 12:08:32;;;;;;;3.65;0.77;;;;;;;;;;5031687;28;20048;-78
2022/08/05 12:10:59;;;;;;;4.43;0.80;;;;;;;;;;5032409;28;20021;-75
2022/08/05 12:13:25;;;;;;;1.85;0.60;;;;;;;;;;5034478;28;20036;-76
2022/08/05 12:15:50;;;;;;;3.75;1.15;;;;;;;;;;5036474;28;20530;-75
2022/08/05 12:18:27;;;;;;;2.42;0.70;;;;;;;;;;5050751;28;20025;-78
2022/08/05 12:20:52;;;;;;;1.85;0.80;;;;;;;;;;5052148;28;20512;-75
2022/08/05 12:23:17;;;;;;;8.17;1.10;;;;;;;;;;5036752;28;20033;-78
2022/08/05 12:25:49;;;;;;;5.37;0.90;;;;;;;;;;5036130;28;20400;-78
2022/08/05 12:28:15;;;;;;;;;;;;;;;;;;5016646;28;20467;-78
2022/08/05 12:30:40;;;;;;;1.77;0.70;;;;;;;;;;5037883;28;19959;-80
2022/08/05 12:33:05;;;;;;;3.03;0.53;;;;;;;;;;5036724;28;20021;-76
2022/08/05 12:35:30;;;;;;;2.67;0.70;;;;;;;;;;5035741;28;20360;-77
2022/08/05 12:37:56;;;;;;;13.85;1.83;;;;;;;;;;5051700;28;20124;-75
2022/08/05 12:40:24;;;;;;;2.67;0.80;;;;;;;;;;5037681;28;20026;-75
2022/08/05 12:42:49;;;;;;;1.67;0.85;;;;;;;;;;5034561;28;20017;-75
2022/08/05 12:45:14;;;;;;;2.42;1.13;;;;;;;;;;5051509;28;20123;-75
2022/08/05 12:47:40;;;;;;;4.43;0.80;;;;;;;;;;5050202;28;20459;-79
2022/08/05 12:50:12;;;;;;;2.60;0.90;;;;;;;;;;5033286;28;20018;-78
2022/08/05 12:52:38;;;;;;;;;;;;;;;;;;5036001;28;20045;-77
2022/08/05 12:55:24;;;;;;;1.38;0.80;;;;;;;;;;5041806;28;19908;-75
2022/08/05 12:57:50;;;;;;;2.25;0.80;;;;;;;;;;5044204;28;20564;-78
2022/08/05 13:00:20;;;;;;;2.42;1.00;;;;;;;;;;5035315;28;20428;-78
2022/08/05 13:02:45;;;;;;;1.55;0.77;;;;;;;;;;5033759;28;20064;-78
2022/08/05 13:05:10;;;;;;;3.65;0.80;;;;;;;;;;5043214;28;20061;-75
2022/08/05 13:07:38;;;;;;;2.88;0.80;;;;;;;;;;5033280;28;20032;-75
2022/08/05 13:10:08;;;;;;;3.58;0.90;;;;;;;;;;5033553;28;20017;-77
2022/08/05 13:12:40;;;;;;;3.85;0.70;;;;;;;;;;5049460;28;20033;-74
2022/08/05 13:15:10;;;;;;;1.75;0.80;;;;;;;;;;5044323;28;20026;-78
2022/08/05 13:17:36;;;;;;;3.13;0.82;;;;;;;;;;5046003;28;20033;-77
2022/08/05 13:20:01;;;;;;;5.57;1.00;;;;;;;;;;5014213;28;20555;-75
2022/08/05 13:22:27;;;;;;;6.43;1.05;;;;;;;;;;5032314;28;20112;-77
2022/08/05 13:24:52;;;;;;;7.97;2.00;;;;;;;;;;5034558;28;20393;-78
2022/08/05 13:27:28;;;;;;;2.30;1.02;;;;;;;;;;5034049;28;20022;-75
2022/08/05 13:29:53;;;;;;;2.65;1.05;;;;;;;;;;5034422;28;20501;-75
2022/08/05 13:32:19;;;;;;;4.53;0.85;;;;;;;;;;5032851;28;20125;-75
2022/08/05 13:34:45;;;;;;;3.05;0.90;;;;;;;;;;5034931;28;20010;-76
2022/08/05 13:37:10;;;;;;;1.90;0.73;;;;;;;;;;5034275;28;20370;-78
2022/08/05 13:39:38;;;;;;;1.47;1.07;;;;;;;;;;5035183;28;20034;-75
2022/08/05 13:42:03;;;;;;;5.13;1.02;;;;;;;;;;5033803;28;20273;-75
2022/08/05 13:44:29;;;;;;;1.40;0.93;;;;;;;;;;5034042;28;20397;-76
2022/08/05 13:46:54;;;;;;;2.07;1.00;;;;;;;;;;5034158;28;20025;-76
2022/08/05 13:49:19;;;;;;;2.20;1.30;;;;;;;;;;5034991;28;20290;-74
2022/08/05 13:51:44;;;;;;;6.20;1.70;;;;;;;;;;5034312;28;20039;-75
2022/08/05 13:54:10;;;;;;;3.72;1.10;;;;;;;;;;5032094;28;20027;-77
2022/08/05 13:56:35;;;;;;;3.08;1.02;;;;;;;;;;5046026;28;20030;-77
2022/08/05 13:59:00;;;;;;;3.25;0.90;;;;;;;;;;5030838;28;20033;-74
2022/08/05 14:01:25;;;;;;;3.70;1.08;;;;;;;;;;5033910;28;20033;-78
2022/08/05 14:06:35;;;;;;;4.60;2.08;;;;;;;;;;5034032;28;20051;-76
2022/08/05 14:09:03;;;;;;;2.08;1.08;;;;;;;;;;5034435;28;20025;-75
2022/08/05 14:11:28;;;;;;;1.05;0.80;;;;;;;;;;5048848;28;20087;-78
2022/08/05 14:13:53;;;;;;;7.53;1.20;;;;;;;;;;5034117;28;20464;-77
2022/08/05 14:16:22;;;;;;;3.85;1.08;;;;;;;;;;5034346;28;20030;-79
2022/08/05 14:18:50;;;;;;;4.03;1.17;;;;;;;;;;5033959;28;20101;-79
2022/08/05 14:21:19;;;;;;;3.28;1.30;;;;;;;;;;5049998;28;20053;-78
2022/08/05 14:23:49;;;;;;;2.60;0.90;;;;;;;;;;5043500;28;20026;-75
2022/08/05 14:26:17;;;;;;;6.05;1.30;;;;;;;;;;5034227;28;20095;-78
2022/08/05 14:28:43;;;;;;;1.77;1.05;;;;;;;;;;5034170;28;20509;-76
2022/08/05 14:31:11;;;;;;;3.72;1.10;;;;;;;;;;5033361;28;20009;-75
2022/08/05 14:33:37;;;;;;;3.95;1.10;;;;;;;;;;5033151;28;20128;-79
2022/08/05 14:36:03;;;;;;;2.10;1.30;;;;;;;;;;5028059;28;20045;-77
2022/08/05 14:38:31;;;;;;;4.25;1.08;;;;;;;;;;5013866;28;20032;-76
2022/08/05 14:40:56;;;;;;;2.13;1.48;;;;;;;;;;5025268;28;20374;-77
2022/08/05 14:43:22;;;;;;;6.25;1.27;;;;;;;;;;5031875;28;20104;-75
2022/08/05 14:45:50;;;;;;;4.32;1.20;;;;;;;;;;5031257;28;20586;-75
2022/08/05 14:48:21;;;;;;;5.47;2.03;;;;;;;;;;5031279;28;20023;-78